• Join FlightAware (Why Join?)
  • Login
  • US Flag 
08:39AM EDT


 

Airport Tracker/Info


-or-


 

Live Flight TrackerFlight Track Log ✈ GJS6252 ✈ 24-May-2013 ✈ KBTV - KLGA

Flight Track Log - Related Links

Times and Time Zones

All times are in EDT time to prevent confusion due to time zone crossing. See the GJS6252 flight status page for this flight to view local times or setup timezone preferences in your user account.

Time Position Orientation Groundspeed Altitude Reporting Facility
EDT Latitude Longitude Course Direction KTS MPH feet Rate Location/Type
06:14AM 44.4708 -73.2750 196° South 199 229 4,600  Level Boston Center
06:15AM 44.3978 -73.2914 189° South 209 241 7,500 2,640 Climbing Boston Center
06:16AM 44.3289 -73.3078 190° South 263 303 9,900 2,100 Climbing Boston Center
06:17AM 44.2494 -73.3386 196° South 294 338 11,800 1,620 Climbing Boston Center
06:18AM 44.1575 -73.3689 193° South 329 379 13,200 1,920 Climbing Boston Center
06:19AM 43.9637 -73.3412 196° South  Level FlightAware Approximate
06:19AM 44.0614 -73.3964 192° South 355 409 15,700  Level Boston Center
06:20AM 43.9717 -73.4267 194° South 350 403 18,700 2,460 Climbing Boston Center
06:21AM 43.8839 -73.4542 193° South 335 386 20,700 1,560 Climbing Boston Center
06:22AM 43.7814 -73.4869 193° South 343 395 21,900 600 Climbing Boston Center
06:23AM 43.6853 -73.5197 194° South 349 402 22,000  Climbing Boston Center
06:24AM 43.5872 -73.5436 190° South 356 410 22,000  Level Boston Center
06:25AM 43.4931 -73.5764 194° South 356 410 22,000  Level Boston Center
06:26AM 43.3989 -73.6003 190° South 356 410 22,000  Level Boston Center
06:27AM 43.3069 -73.6300 193° South 351 404 22,000  Level Boston Center
06:28AM 43.2128 -73.6622 194° South 351 404 22,000  Level Boston Center
06:29AM 43.1272 -73.6889 193° South 358 412 22,000  Level Boston Center
06:30AM 43.0331 -73.7183 193° South 358 412 22,000  Level Boston Center
06:31AM 42.9369 -73.7503 194° South 358 412 22,000  Level Boston Center
06:32AM 42.8406 -73.7767 191° South 353 406 22,000  Level Boston Center
06:33AM 42.7425 -73.8000 190° South 360 414 22,000 -240 Level Boston Center
06:34AM 42.6406 -73.7864 174° South 360 414 21,600 -660 Descending Boston Center
06:35AM 42.5428 -73.7644 171° South 360 414 20,700 -960 Descending Boston Center
06:36AM 42.4450 -73.7456 172° South 360 414 19,700 -900 Descending Boston Center
06:37AM 42.3347 -73.7181 170° South 370 426 19,000 -360 Descending Boston Center
06:38AM 42.2517 -73.7050 173° South 363 418 19,000  Level Boston Center
06:39AM 42.1539 -73.6836 171° South 363 418 19,000  Level Boston Center
06:40AM 42.0436 -73.6561 170° South 368 423 19,000 -60 Level Boston Center
06:41AM 41.9542 -73.6600 182° South 363 418 18,900 -900 Descending Boston Center
06:42AM 41.8475 -73.6831 189° South 357 411 17,200 -1,620 Descending Boston Center
06:43AM 41.7619 -73.7036 190° South 349 402 15,700 -1,740 Descending Boston Center
06:44AM 41.6553 -73.7264 189° South 354 407 13,800 -1,920 Descending Boston Center
06:45AM 41.5833 -73.7500 194° South 352 405 12,300 -1,920 Descending New York TRACON
06:46AM 41.4833 -73.7500 180° South 344 396 10,600 -1,380 Descending New York TRACON
06:47AM 41.3833 -73.7000 159° South 277 319 9,300 -1,380 Descending New York TRACON
06:48AM 41.3167 -73.6833 169° South 276 318 7,600 -1,800 Descending New York TRACON
06:49AM 41.2667 -73.6500 153° Southeast 278 320 6,100 -1,560 Descending New York TRACON
06:50AM 41.1833 -73.6167 163° South 269 310 4,700 -1,080 Descending New York TRACON
06:51AM 41.1167 -73.6000 169° South 264 304 4,000 -420 Descending New York TRACON
06:52AM 41.0667 -73.6500 217° Southwest 253 291 4,000 -60 Level New York TRACON
06:53AM 41.0000 -73.7000 210° Southwest 257 296 3,900 -420 Descending New York TRACON
06:54AM 40.9333 -73.7500 210° Southwest 248 285 3,200 -840 Descending New York TRACON
06:55AM 40.8833 -73.7833 207° Southwest 220 253 2,300 -960 Descending New York TRACON
06:56AM 40.8500 -73.8167 217° Southwest 155 178 1,300 -900 Descending New York TRACON
06:57AM 40.8000 -73.8500 207° Southwest 142 163 500 -780 Descending New York TRACON
06:59AM 40.7667 -73.8667 180° South  Level FlightAware Approximate
07:06AM 40.7772 -73.8726 180° South  Level Estimated